Milwaukee, Wisconsin
Current Conditions -  °F | °C
As of 3:01 PM on Sunday 23 Nov 2014 (Local Time) from KMKE Reporting Station
Light Rain Light Rain  
Wind Chill:   Ceiling: 500
Heat Index:   Visibility: 3mi
Dew Point:   Wind: 10mph
Humidity: 89%   Direction: 150°SSE
Pressure: 29.49"   Gusts: NA
Location:  43.04°N, 87.91°W
Report Text: KMKE 232101Z 15009KT 3SM -RA BR BKN005 OVC012 09/07 A2949 RMK AO2 TWR VIS 4 P0000 T00890072
Loading
Personal Weather Stations






























Interactive Weather Map New forecast layout! Learn more

10-Day Weather Forecast

Advertisements
Track Severe Weather on mobile